Marion, Kentucky
Current Conditions -  °F | °C
As of 9:15 AM on Wednesday 22 Oct 2014 (Local Time) from K5M9 Reporting Station
Clear Clear  
Wind Chill: 45°   Ceiling: Unl
Heat Index: 49°   Visibility: 10mi
Dew Point: 43°   Wind: 9mph
Humidity: 79%   Direction: 100°E
Pressure: 30.3"   Gusts: NA
Location:  37.33°N, 88.08°W
Report Text: K5M9 221415Z AUTO 10008KT 10SM CLR 09/06 A3030 RMK AO2 T00940060
Loading
Personal Weather Stations






























Interactive Weather Map
Tropical Storm Tracking
New forecast layout! Learn more

10-Day Weather Forecast

Advertisements
Track Severe Weather on mobile